Time;durP1;ratioP1;P1;durP2;ratioP2;P2;SDS_P1;SDS_P2;PMS_P1;PMS_P2;Temp;Humidity;BMP_temperature;BMP_pressure;BME280_temperature;BME280_humidity;BME280_pressure;Samples;Min_cycle;Max_cycle;Signal;HPM_P1;HPM_P2
2022/08/24 00:00:56;;;;;;;;;;;;;;;29.34;33.30;94361.28;4914493;29;7199;-62
2022/08/24 00:03:22;;;;;;;;;;;;;;;29.35;32.85;94367.56;4915251;29;9561;-62
2022/08/24 00:05:48;;;;;;;;;;;;;;;29.35;33.34;94367.56;4928433;29;9754;-62
2022/08/24 00:08:24;;;;;;;;;;;;;;;29.33;32.80;94361.81;4931920;29;9542;-62
2022/08/24 00:10:52;;;;;;;;;;;;;;;29.32;33.47;94365.88;4958653;28;7546;-62
2022/08/24 00:13:27;;;;;;;;;;;;;;;29.31;33.70;94361.63;4969580;28;7511;-62
2022/08/24 00:15:58;;;;;;;;;;;;;;;29.30;33.79;94366.41;4963413;28;7198;-62
2022/08/24 00:18:33;;;;;;;;;;;;;;;29.29;33.13;94355.88;4967924;28;9228;-62
2022/08/24 00:21:05;;;;;;;;;;;;;;;29.29;33.65;94367.69;4965120;28;7207;-62
2022/08/24 00:23:50;;;;;;;;;;;;;;;29.30;33.10;94357.34;4965133;28;9236;-62
2022/08/24 00:26:25;;;;;;;;;;;;;;;29.27;33.14;94353.66;4985918;28;9286;-62
2022/08/24 00:29:12;;;;;;;;;;;;;;;29.28;33.74;94349.56;4985354;28;8551;-62
2022/08/24 00:31:48;;;;;;;;;;;;;;;29.27;33.26;94352.91;4966991;28;7222;-62
2022/08/24 00:34:24;;;;;;;;;;;;;;;29.24;32.79;94349.16;4970980;28;7253;-62
2022/08/24 00:36:52;;;;;;;;;;;;;;;29.25;34.12;94349.91;4973741;28;7004;-62
2022/08/24 00:39:20;;;;;;;;;;;;;;;29.23;33.69;94355.25;4971233;28;9077;-62
2022/08/24 00:41:49;;;;;;;;;;;;;;;29.24;34.11;94348.41;4985642;28;9808;-62
2022/08/24 00:44:19;;;;;;;;;;;;;;;29.23;33.53;94349.72;4972140;28;7246;-62
2022/08/24 00:46:57;;;;;;;;;;;;;;;29.24;33.22;94351.19;4964642;28;7017;-62
2022/08/24 00:50:11;;;;;;;;;;;;;;;29.23;33.12;94346.94;4984960;28;9473;-62
2022/08/24 00:52:56;;;;;;;;;;;;;;;29.22;33.09;94345.44;4907510;29;7178;-62
2022/08/24 00:55:50;;;;;;;;;;;;;;;29.22;33.45;94346.19;4912029;29;7097;-62
2022/08/24 00:58:24;;;;;;;;;;;;;;;29.21;33.28;94343.97;4895433;29;7279;-62
2022/08/24 01:01:08;;;;;;;;;;;;;;;29.19;33.32;94338.22;4908145;29;9086;-62
2022/08/24 01:03:36;;;;;;;;;;;;;;;29.18;33.79;94340.22;4882066;29;8794;-62
2022/08/24 01:06:13;;;;;;;;;;;;;;;29.18;33.50;94342.25;4908319;29;9400;-62
2022/08/24 01:08:49;;;;;;;;;;;;;;;29.19;33.36;94341.00;4893814;29;7710;-62
2022/08/24 01:11:29;;;;;;;;;;;;;;;29.18;33.53;94340.22;4895833;29;9584;-62
2022/08/24 01:14:10;;;;;;;;;;;;;;;29.18;33.55;94342.25;4897422;29;7262;-62
2022/08/24 01:19:37;;;;;;;;;;;;;;;29.17;33.23;94335.25;4910648;29;8498;-62
2022/08/24 01:22:50;;;;;;;;;;;;;;;29.17;33.82;94335.25;4896528;29;9413;-61
2022/08/24 01:25:31;;;;;;;;;;;;;;;29.15;33.21;94334.97;4897231;29;9373;-62
2022/08/24 01:28:22;;;;;;;;;;;;;;;29.15;33.19;94334.97;4912493;28;7310;-62
2022/08/24 01:30:59;;;;;;;;;;;;;;;29.12;33.24;94324.97;4964947;28;9647;-62
2022/08/24 01:33:32;;;;;;;;;;;;;;;29.13;32.94;94327.22;4982838;28;7214;-62
2022/08/24 01:36:49;;;;;;;;;;;;;;;29.13;33.37;94332.75;4972894;28;8903;-62
2022/08/24 01:39:24;;;;;;;;;;;;;;;29.12;33.36;94327.75;4967464;28;9447;-62
2022/08/24 01:41:51;;;;;;;;;;;;;;;29.13;33.26;94332.00;4984346;28;7234;-62
2022/08/24 01:44:21;;;;;;;;;;;;;;;29.11;33.33;94324.22;4980437;28;7270;-62
2022/08/24 01:46:52;;;;;;;;;;;;;;;29.10;33.55;94331.78;4982329;28;9172;-61
2022/08/24 01:49:30;;;;;;;;;;;;;;;29.11;33.45;94329.78;4972333;28;7241;-61
2022/08/24 01:52:01;;;;;;;;;;;;;;;29.10;33.53;94323.47;4972755;28;6996;-61
2022/08/24 01:54:39;;;;;;;;;;;;;;;29.08;33.67;94326.03;4971336;28;10535;-61
2022/08/24 01:57:16;;;;;;;;;;;;;;;29.07;33.37;94330.09;4974656;28;7453;-61
2022/08/24 02:00:05;;;;;;;;;;;;;;;29.05;33.96;94327.13;4985033;28;7000;-61
2022/08/24 02:02:42;;;;;;;;;;;;;;;29.05;33.51;94326.38;4966752;28;7020;-61
2022/08/24 02:05:22;;;;;;;;;;;;;;;29.06;33.93;94330.63;4968943;28;7629;-61
2022/08/24 02:07:58;;;;;;;;;;;;;;;29.05;33.21;94329.16;4986413;28;6979;-61
2022/08/24 02:10:25;;;;;;;;;;;;;;;29.04;33.77;94335.97;4968491;28;7261;-61
2022/08/24 02:12:59;;;;;;;;;;;;;;;29.04;33.95;94331.16;4973229;28;7196;-61
2022/08/24 02:15:52;;;;;;;;;;;;;;;29.03;33.76;94329.69;4972586;28;7230;-61
2022/08/24 02:18:24;;;;;;;;;;;;;;;29.04;33.83;94335.97;4967587;28;9450;-61
2022/08/24 02:20:53;;;;;;;;;;;;;;;29.02;33.70;94341.28;4975782;28;8401;-61
2022/08/24 02:23:36;;;;;;;;;;;;;;;28.98;33.66;94336.09;4968545;28;9463;-61
2022/08/24 02:26:26;;;;;;;;;;;;;;;28.97;33.48;94337.34;4972503;28;7588;-61
2022/08/24 02:28:58;;;;;;;;;;;;;;;28.97;34.13;94337.34;4985863;28;7419;-61
2022/08/24 02:31:45;;;;;;;;;;;;;;;28.95;33.62;94334.38;4969631;28;7202;-61
2022/08/24 02:34:14;;;;;;;;;;;;;;;28.94;33.58;94334.91;4964044;28;7257;-61
2022/08/24 02:37:13;;;;;;;;;;;;;;;28.94;33.43;94338.44;4979468;28;7121;-61
2022/08/24 02:39:39;;;;;;;;;;;;;;;28.91;33.90;94339.50;4936355;28;7258;-61
2022/08/24 02:42:05;;;;;;;;;;;;;;;28.93;33.89;94341.72;4936303;28;9150;-61
2022/08/24 02:44:31;;;;;;;;;;;;;;;28.91;34.20;94338.75;4952312;28;9414;-61
2022/08/24 02:46:57;;;;;;;;;;;;;;;28.90;33.81;94343.56;4937556;28;9272;-61
2022/08/24 02:49:32;;;;;;;;;;;;;;;28.90;33.73;94345.56;4950827;28;7326;-61
2022/08/24 02:52:14;;;;;;;;;;;;;;;28.90;33.92;94335.25;4952701;28;9553;-61
2022/08/24 02:55:11;;;;;;;;;;;;;;;28.90;33.87;94340.78;4936166;28;7234;-61
2022/08/24 02:57:57;;;;;;;;;;;;;;;28.91;33.77;94345.03;4886849;29;7422;-61
2022/08/24 03:00:37;;;;;;;;;;;;;;;28.90;33.67;94338.03;4895084;29;7235;-61
2022/08/24 03:03:12;;;;;;;;;;;;;;;28.89;33.75;94339.28;4875566;29;10066;-61
2022/08/24 03:05:40;;;;;;;;;;;;;;;28.90;33.65;94338.03;4879702;29;9393;-61
2022/08/24 03:08:18;;;;;;;;;;;;;;;28.88;33.84;94335.00;4895019;29;7005;-62
2022/08/24 03:10:49;;;;;;;;;;;;;;;28.90;33.91;94335.25;4894438;29;6980;-61
2022/08/24 03:13:25;;;;;;;;;;;;;;;28.88;34.18;94337.78;4873119;29;9079;-61
2022/08/24 03:15:51;;;;;;;;;;;;;;;28.89;33.75;94330.97;4911716;29;7236;-61
2022/08/24 03:18:18;;;;;;;;;;;;;;;28.87;33.79;94333.53;4932558;29;7232;-61
2022/08/24 03:20:54;;;;;;;;;;;;;;;28.86;33.71;94334.09;4931027;29;7207;-61
2022/08/24 03:23:23;;;;;;;;;;;;;;;28.85;34.18;94336.09;4915616;29;7181;-61
2022/08/24 03:26:26;;;;;;;;;;;;;;;28.85;33.76;94338.13;4932428;29;9159;-61
2022/08/24 03:29:11;;;;;;;;;;;;;;;28.83;33.98;94335.88;4896763;29;9700;-61
2022/08/24 03:31:47;;;;;;;;;;;;;;;28.84;33.62;94350.47;4892654;29;9393;-61
2022/08/24 03:34:21;;;;;;;;;;;;;;;28.83;34.20;94337.91;4945026;28;7245;-61
2022/08/24 03:36:59;;;;;;;;;;;;;;;28.82;33.67;94334.38;4950574;28;7243;-61
2022/08/24 03:39:25;;;;;;;;;;;;;;;28.83;33.64;94332.38;4950184;28;8513;-61
2022/08/24 03:41:53;;;;;;;;;;;;;;;28.84;33.62;94331.09;4951443;28;7319;-61
2022/08/24 03:44:19;;;;;;;;;;;;;;;28.82;33.56;94330.88;4947930;28;7155;-61
2022/08/24 03:46:45;;;;;;;;;;;;;;;28.82;33.56;94328.84;4950922;28;7718;-61
2022/08/24 03:49:14;;;;;;;;;;;;;;;28.82;33.93;94336.41;4949857;28;7288;-61
2022/08/24 03:51:40;;;;;;;;;;;;;;;28.80;33.96;94331.41;4950429;28;8327;-62
2022/08/24 03:54:12;;;;;;;;;;;;;;;28.81;33.66;94346.00;4966941;28;7283;-61
2022/08/24 03:56:42;;;;;;;;;;;;;;;28.79;33.90;94337.50;4968350;28;6984;-61
2022/08/24 03:59:17;;;;;;;;;;;;;;;28.79;33.96;94338.25;4960898;28;8778;-61
2022/08/24 04:01:47;;;;;;;;;;;;;;;28.78;33.49;94328.44;4967912;28;7269;-62
2022/08/24 04:04:13;;;;;;;;;;;;;;;28.76;33.73;94333.75;4972663;28;9362;-61
2022/08/24 04:06:54;;;;;;;;;;;;;;;28.77;33.37;94338.03;4971045;28;7619;-61
2022/08/24 04:09:26;;;;;;;;;;;;;;;28.76;34.05;94336.53;4964079;28;7161;-61
2022/08/24 04:12:16;;;;;;;;;;;;;;;28.76;33.73;94344.06;4968751;28;7355;-61
2022/08/24 04:14:45;;;;;;;;;;;;;;;28.74;33.30;94343.88;4972170;28;7196;-61
2022/08/24 04:17:12;;;;;;;;;;;;;;;28.74;33.74;94341.84;4968753;28;7702;-61
2022/08/24 04:19:56;;;;;;;;;;;;;;;28.74;34.19;94341.09;4967511;28;7024;-61
2022/08/24 04:22:35;;;;;;;;;;;;;;;28.74;33.61;94341.09;4966246;28;8771;-61
2022/08/24 04:25:12;;;;;;;;;;;;;;;28.72;34.03;94338.13;4959017;28;7326;-61
2022/08/24 04:27:44;;;;;;;;;;;;;;;28.71;33.83;94333.88;4963924;28;7341;-61
2022/08/24 04:30:26;;;;;;;;;;;;;;;28.72;33.58;94338.13;4967778;28;7508;-61
2022/08/24 04:32:58;;;;;;;;;;;;;;;28.70;33.72;94346.97;4966826;28;9442;-61
2022/08/24 04:35:53;;;;;;;;;;;;;;;28.69;33.61;94345.47;4966216;28;7255;-60
2022/08/24 04:38:21;;;;;;;;;;;;;;;28.67;33.73;94353.56;4967018;28;7290;-61
2022/08/24 04:40:49;;;;;;;;;;;;;;;28.69;33.73;94359.31;4977036;28;7029;-61
2022/08/24 04:43:20;;;;;;;;;;;;;;;28.68;33.94;94357.06;4965316;28;7246;-61
2022/08/24 04:45:47;;;;;;;;;;;;;;;28.65;33.57;94356.13;4967918;28;7085;-61
2022/08/24 04:48:34;;;;;;;;;;;;;;;28.66;33.63;94363.16;4972041;28;7850;-61
2022/08/24 04:51:10;;;;;;;;;;;;;;;28.66;33.70;94363.16;4965505;28;7186;-61
2022/08/24 04:53:49;;;;;;;;;;;;;;;28.66;34.10;94356.88;4970841;28;7782;-61
2022/08/24 04:56:24;;;;;;;;;;;;;;;28.65;34.02;94361.66;4967708;28;7376;-61
2022/08/24 04:58:53;;;;;;;;;;;;;;;28.62;34.48;94362.72;4967778;28;8530;-61
2022/08/24 05:01:32;;;;;;;;;;;;;;;28.63;33.82;94360.69;4968291;28;7578;-61
2022/08/24 05:04:05;;;;;;;;;;;;;;;28.62;34.08;94368.25;4978951;28;7083;-61
2022/08/24 05:06:53;;;;;;;;;;;;;;;28.63;33.95;94366.22;4981588;28;6985;-61
2022/08/24 05:09:20;;;;;;;;;;;;;;;28.62;33.64;94362.72;4961346;28;7564;-61
2022/08/24 05:12:30;;;;;;;;;;;;;;;28.62;34.24;94362.72;4966661;28;9182;-61
2022/08/24 05:15:00;;;;;;;;;;;;;;;28.61;33.90;94360.47;4964204;28;8541;-61
2022/08/24 05:17:26;;;;;;;;;;;;;;;28.60;34.04;94368.03;4975264;28;7178;-60
2022/08/24 05:19:55;;;;;;;;;;;;;;;28.59;33.73;94363.78;4965877;28;7166;-61
2022/08/24 05:22:31;;;;;;;;;;;;;;;28.60;33.96;94370.06;4962740;28;8902;-60
2022/08/24 05:25:27;;;;;;;;;;;;;;;28.59;33.80;94372.09;4964227;28;6978;-61
2022/08/24 05:28:05;;;;;;;;;;;;;;;28.59;33.55;94365.78;4908402;29;7067;-61
2022/08/24 05:30:33;;;;;;;;;;;;;;;28.55;33.79;94363.31;4928165;29;6857;-61
2022/08/24 05:32:59;;;;;;;;;;;;;;;28.57;33.65;94360.81;4917745;29;7179;-61
2022/08/24 05:35:52;;;;;;;;;;;;;;;28.58;34.00;94370.59;4923905;29;6977;-61
2022/08/24 05:38:22;;;;;;;;;;;;;;;28.56;33.93;94367.56;4929892;29;9391;-61
2022/08/24 05:40:50;;;;;;;;;;;;;;;28.55;34.37;94368.13;4930547;29;7628;-60
2022/08/24 05:43:16;;;;;;;;;;;;;;;28.54;34.13;94378.44;4926367;29;7837;-61
2022/08/24 05:45:43;;;;;;;;;;;;;;;28.54;34.05;94372.91;4927302;29;6990;-61
2022/08/24 05:48:19;;;;;;;;;;;;;;;28.55;34.05;94368.13;4924492;29;6989;-61
2022/08/24 05:50:56;;;;;;;;;;;;;;;28.54;34.66;94372.91;4915040;29;7322;-61
2022/08/24 05:53:27;;;;;;;;;;;;;;;28.53;33.93;94374.19;4930288;29;6985;-60
2022/08/24 05:56:05;;;;;;;;;;;;;;;28.52;34.26;94372.69;4927888;29;7237;-61
2022/08/24 05:58:40;;;;;;;;;;;;;;;28.54;34.29;94374.91;4905026;29;7033;-60
2022/08/24 06:01:22;;;;;;;;;;;;;;;28.53;34.24;94367.91;4905651;29;6972;-61
2022/08/24 06:03:52;;;;;;;;;;;;;;;28.51;33.95;94368.44;4936671;28;7147;-61
2022/08/24 06:06:27;;;;;;;;;;;;;;;28.50;34.30;94372.47;4965029;28;7139;-61
2022/08/24 06:09:00;;;;;;;;;;;;;;;28.52;33.87;94375.44;4980101;28;7233;-61
2022/08/24 06:11:36;;;;;;;;;;;;;;;28.51;34.10;94376.75;4959584;28;7043;-61
2022/08/24 06:14:14;;;;;;;;;;;;;;;28.53;33.90;94381.72;4958329;28;7262;-60
2022/08/24 06:16:44;;;;;;;;;;;;;;;28.52;33.85;94372.69;4966563;28;9809;-61
2022/08/24 06:19:13;;;;;;;;;;;;;;;28.51;33.94;94373.97;4979417;28;7378;-61
2022/08/24 06:21:51;;;;;;;;;;;;;;;28.51;33.91;94379.50;4971280;28;7232;-61
2022/08/24 06:27:20;;;;;;;;;;;;;;;28.51;33.56;94387.06;4987685;28;10003;-61
2022/08/24 06:27:24;;;;;;;;;;;;;;;28.47;34.06;94390.13;4969041;28;7300;-61
2022/08/24 06:29:57;;;;;;;;;;;;;;;28.44;33.96;94382.91;4970467;28;8322;-61
2022/08/24 06:32:57;;;;;;;;;;;;;;;28.47;33.90;94386.63;4971145;28;7304;-61
2022/08/24 06:35:34;;;;;;;;;;;;;;;28.47;33.81;94384.59;4952442;28;6935;-61
2022/08/24 06:38:10;;;;;;;;;;;;;;;28.46;33.63;94390.66;4933636;28;7227;-61
2022/08/24 06:40:36;;;;;;;;;;;;;;;28.46;33.65;94387.88;4937559;28;7044;-61
2022/08/24 06:43:03;;;;;;;;;;;;;;;28.46;33.41;94383.09;4951425;28;7671;-61
2022/08/24 06:45:31;;;;;;;;;;;;;;;28.49;34.09;94392.38;4947664;28;7260;-61
2022/08/24 06:48:29;;;;;;;;;;;;;;;28.46;33.39;94385.88;4951930;28;7180;-61
2022/08/24 06:50:57;;;;;;;;;;;;;;;28.46;33.51;94387.88;4896212;29;7283;-61
2022/08/24 06:53:25;;;;;;;;;;;;;;;28.46;33.14;94385.13;4880225;29;7295;-62
2022/08/24 06:55:58;;;;;;;;;;;;;;;28.41;33.71;94386.72;4892975;29;9154;-61
2022/08/24 06:58:48;;;;;;;;;;;;;;;28.41;33.83;94388.72;4880922;29;7027;-61
2022/08/24 07:01:45;;;;;;;;;;;;;;;28.38;33.62;94391.28;4879036;29;7540;-61
2022/08/24 07:04:30;;;;;;;;;;;;;;;28.40;33.46;94390.00;4893925;29;9303;-61
2022/08/24 07:07:05;;;;;;;;;;;;;;;28.42;33.64;94390.22;4896094;29;7405;-61
2022/08/24 07:09:42;;;;;;;;;;;;;;;28.42;33.98;94395.75;4894865;29;8838;-62
2022/08/24 07:12:09;;;;;;;;;;;;;;;28.43;33.96;94386.94;4901792;29;9642;-61
2022/08/24 07:14:37;;;;;;;;;;;;;;;28.42;34.09;94393.00;4923190;29;7001;-61
2022/08/24 07:17:04;;;;;;;;;;;;;;;28.42;33.46;94393.75;4925842;29;6876;-62
2022/08/24 07:19:30;;;;;;;;;;;;;;;28.40;34.17;94388.00;4914884;29;7254;-63
2022/08/24 07:21:57;;;;;;;;;;;;;;;28.40;34.28;94388.00;4907690;29;7194;-63
2022/08/24 07:24:23;;;;;;;;;;;;;;;28.40;34.06;94388.00;4923686;29;7007;-62
2022/08/24 07:26:57;;;;;;;;;;;;;;;28.40;33.87;94390.00;4933149;28;6853;-63
2022/08/24 07:29:34;;;;;;;;;;;;;;;28.40;34.30;94388.00;4967741;28;9363;-63
2022/08/24 07:32:03;;;;;;;;;;;;;;;28.39;34.09;94392.03;4968584;28;7496;-62
2022/08/24 07:34:33;;;;;;;;;;;;;;;28.35;34.19;94388.84;4981539;28;8283;-62
2022/08/24 07:37:06;;;;;;;;;;;;;;;28.34;34.26;94393.63;4979681;28;7288;-63
2022/08/24 07:39:32;;;;;;;;;;;;;;;28.38;34.67;94387.03;4981799;28;7771;-63
2022/08/24 07:41:58;;;;;;;;;;;;;;;28.40;34.20;94384.47;4964084;28;7276;-63
2022/08/24 07:44:26;;;;;;;;;;;;;;;28.41;34.45;94391.50;4981291;28;7055;-63
2022/08/24 07:46:52;;;;;;;;;;;;;;;28.40;34.39;94396.31;4987883;28;7242;-63
2022/08/24 07:49:35;;;;;;;;;;;;;;;28.40;34.59;94399.06;4963559;28;7636;-63
2022/08/24 07:52:01;;;;;;;;;;;;;;;28.40;34.13;94396.31;4961384;28;7091;-62
2022/08/24 07:54:39;;;;;;;;;;;;;;;28.38;34.88;94394.03;4985209;28;9314;-62
2022/08/24 07:57:24;;;;;;;;;;;;;;;28.38;35.00;94396.81;4967585;28;8242;-62
2022/08/24 08:00:38;;;;;;;;;;;;;;;28.39;34.92;94405.88;4968477;28;7437;-63
2022/08/24 08:03:33;;;;;;;;;;;;;;;28.38;34.38;94409.16;4963084;28;9793;-62
2022/08/24 08:06:12;;;;;;;;;;;;;;;28.38;34.78;94398.84;4915903;29;7233;-63
2022/08/24 08:08:40;;;;;;;;;;;;;;;28.38;34.54;94398.84;4921164;29;7225;-63
2022/08/24 08:11:16;;;;;;;;;;;;;;;28.38;34.99;94404.38;4907997;29;7013;-62
2022/08/24 08:13:50;;;;;;;;;;;;;;;28.40;34.90;94403.84;4920990;29;8702;-62
2022/08/24 08:16:39;;;;;;;;;;;;;;;28.40;35.11;94407.38;4917390;29;7225;-63
2022/08/24 08:19:34;;;;;;;;;;;;;;;28.41;34.85;94406.06;4894457;29;8172;-62
2022/08/24 08:25:06;;;;;;;;;;;;;;;28.37;35.43;94405.66;4863760;29;7390;-62
2022/08/24 08:27:47;;;;;;;;;;;;;;;28.36;34.55;94409.69;4846225;29;9214;-63
2022/08/24 08:30:16;;;;;;;;;;;;;;;28.35;34.75;94408.19;4866758;29;7228;-62
2022/08/24 08:32:58;;;;;;;;;;;;;;;28.38;34.00;94418.94;4862934;29;7407;-62
2022/08/24 08:35:25;;;;;;;;;;;;;;;28.41;34.44;94417.16;4861413;29;9569;-62
2022/08/24 08:37:54;;;;;;;;;;;;;;;28.41;34.88;94410.84;4867555;29;9695;-62
2022/08/24 08:40:59;;;;;;;;;;;;;;;28.40;34.15;94412.91;4858402;29;7725;-62
2022/08/24 08:43:31;;;;;;;;;;;;;;;28.41;34.31;94422.69;4886697;29;7620;-63
2022/08/24 08:45:59;;;;;;;;;;;;;;;28.41;34.15;94421.94;4910261;29;7129;-62
2022/08/24 08:49:12;;;;;;;;;;;;;;;28.40;34.17;94421.19;4908878;29;9441;-62
2022/08/24 08:52:11;;;;;;;;;;;;;;;28.40;34.13;94417.69;4876966;29;7402;-63
2022/08/24 08:55:00;;;;;;;;;;;;;;;28.38;34.00;94420.97;4877556;29;7240;-63
2022/08/24 08:57:53;;;;;;;;;;;;;;;28.34;34.04;94418.50;4891048;29;7315;-62
2022/08/24 09:00:50;;;;;;;;;;;;;;;28.35;34.02;94424.78;4931860;28;7211;-62
2022/08/24 09:03:53;;;;;;;;;;;;;;;28.35;33.80;94422.03;4935140;28;7299;-63
2022/08/24 09:06:49;;;;;;;;;;;;;;;28.36;33.54;94415.22;4931275;28;7347;-63
2022/08/24 09:10:08;;;;;;;;;;;;;;;28.35;33.92;94419.25;4947474;28;7482;-63
2022/08/24 09:12:54;;;;;;;;;;;;;;;28.36;33.86;94420.78;4888735;29;9669;-62
2022/08/24 09:15:53;;;;;;;;;;;;;;;28.37;33.69;94416.72;4875492;29;9372;-63
2022/08/24 09:18:25;;;;;;;;;;;;;;;28.37;33.16;94413.94;4877078;29;7393;-62
2022/08/24 09:21:02;;;;;;;;;;;;;;;28.36;33.32;94412.47;4872499;29;9800;-62
2022/08/24 09:23:50;;;;;;;;;;;;;;;28.35;33.35;94408.19;4893738;29;6963;-62
2022/08/24 09:27:05;;;;;;;;;;;;;;;28.37;33.32;94408.41;4910492;29;10095;-63
2022/08/24 09:29:58;;;;;;;;;;;;;;;28.34;33.34;94406.69;4873002;29;7209;-62
2022/08/24 09:33:02;;;;;;;;;;;;;;;28.35;33.74;94414.47;4859346;29;7242;-63
2022/08/24 09:35:51;;;;;;;;;;;;;;;28.37;33.47;94408.41;4857753;29;7643;-62
2022/08/24 09:38:38;;;;;;;;;;;;;;;28.40;33.49;94407.38;4863627;29;7221;-62
2022/08/24 09:41:19;;;;;;;;;;;;;;;28.41;34.00;94413.63;4873851;29;9700;-63
2022/08/24 09:44:35;;;;;;;;;;;;;;;28.43;33.78;94406.28;4873792;29;7462;-62
2022/08/24 09:47:58;;;;;;;;;;;;;;;28.42;33.39;94406.81;4875683;29;7427;-62
2022/08/24 09:50:40;;;;;;;;;;;;;;;28.42;33.85;94409.59;4871039;29;9521;-63
2022/08/24 09:53:35;;;;;;;;;;;;;;;28.42;33.85;94406.81;4869936;29;10000;-62
2022/08/24 09:56:27;;;;;;;;;;;;;;;28.42;34.24;94401.28;4867916;29;7239;-62
2022/08/24 09:59:37;;;;;;;;;;;;;;;28.43;34.20;94402.81;4868983;29;7159;-63
2022/08/24 10:02:22;;;;;;;;;;;;;;;28.43;34.05;94402.81;4873537;29;7276;-62
2022/08/24 10:04:59;;;;;;;;;;;;;;;28.43;33.88;94397.25;4860475;29;9638;-63
2022/08/24 10:08:11;;;;;;;;;;;;;;;28.45;33.91;94394.72;4912606;28;7492;-63
2022/08/24 10:10:58;;;;;;;;;;;;;;;28.46;34.24;94387.88;4912656;29;9334;-63
2022/08/24 10:14:07;;;;;;;;;;;;;;;28.46;34.20;94385.88;4928644;29;7336;-62
2022/08/24 10:17:00;;;;;;;;;;;;;;;28.48;34.13;94385.34;4930198;29;7207;-63
2022/08/24 10:19:52;;;;;;;;;;;;;;;28.48;34.70;94388.84;4933467;28;6865;-62
2022/08/24 10:23:04;;;;;;;;;;;;;;;28.51;35.48;94381.53;4966949;28;7216;-62
2022/08/24 10:25:46;;;;;;;;;;;;;;;28.54;35.29;94381.19;4971634;28;6929;-62
2022/08/24 10:28:51;;;;;;;;;;;;;;;28.58;35.16;94378.16;4973874;28;7188;-61
2022/08/24 10:31:30;;;;;;;;;;;;;;;28.57;35.60;94377.41;4985157;28;7327;-62
2022/08/24 10:34:21;;;;;;;;;;;;;;;28.56;34.88;94370.34;4984114;28;9394;-62
2022/08/24 10:37:15;;;;;;;;;;;;;;;28.57;35.14;94371.09;4984832;28;7301;-63
2022/08/24 10:40:30;;;;;;;;;;;;;;;28.59;35.26;94368.56;4970781;28;7215;-62
2022/08/24 10:43:38;;;;;;;;;;;;;;;28.60;35.12;94376.31;4964209;28;9200;-62
2022/08/24 10:46:35;;;;;;;;;;;;;;;28.63;35.33;94372.50;4931574;29;7205;-61
2022/08/24 10:49:32;;;;;;;;;;;;;;;28.65;35.18;94367.19;4913474;29;9074;-61
2022/08/24 10:52:36;;;;;;;;;;;;;;;28.61;34.56;94368.78;4930858;29;7210;-62
2022/08/24 10:55:27;;;;;;;;;;;;;;;28.59;34.97;94374.09;4916127;29;9358;-62
2022/08/24 10:58:08;;;;;;;;;;;;;;;28.59;34.53;94374.84;4930389;29;7376;-62
2022/08/24 11:01:33;;;;;;;;;;;;;;;28.60;34.44;94372.84;4912513;29;6931;-62
2022/08/24 11:04:12;;;;;;;;;;;;;;;28.60;34.64;94381.84;4799487;29;7601;-61
2022/08/24 11:07:08;;;;;;;;;;;;;;;28.61;34.59;94377.84;4797005;29;7170;-62
2022/08/24 11:09:50;;;;;;;;;;;;;;;28.63;34.78;94380.06;4775011;29;7622;-62
2022/08/24 11:12:38;;;;;;;;;;;;;;;28.61;34.81;94374.31;4774970;29;7407;-62
2022/08/24 11:15:18;;;;;;;;;;;;;;;28.62;35.01;94371.03;4773574;29;9434;-61
2022/08/24 11:18:02;;;;;;;;;;;;;;;28.63;34.10;94378.03;4774661;29;6841;-62
2022/08/24 11:20:35;;;;;;;;;;;;;;;28.61;34.46;94380.59;4769997;29;7418;-62
2022/08/24 11:23:27;;;;;;;;;;;;;;;28.62;34.71;94378.59;4744279;30;7293;-61
2022/08/24 11:25:59;;;;;;;;;;;;;;;28.65;34.70;94378.25;4750506;30;8556;-61
2022/08/24 11:28:37;;;;;;;;;;;;;;;28.68;35.17;94381.97;4749815;30;7495;-62
2022/08/24 11:31:12;;;;;;;;;;;;;;;28.67;34.45;94381.22;4748849;30;7381;-62
2022/08/24 11:33:57;;;;;;;;;;;;;;;28.67;35.35;94370.16;4761856;30;7215;-62
2022/08/24 11:36:27;;;;;;;;;;;;;;;28.68;34.19;94376.44;4761918;30;8238;-62
2022/08/24 11:39:24;;;;;;;;;;;;;;;28.68;34.16;94376.44;4786227;29;7089;-61
2022/08/24 11:41:59;;;;;;;;;;;;;;;28.70;34.65;94365.59;4890178;29;7730;-62
2022/08/24 11:44:47;;;;;;;;;;;;;;;28.69;34.70;94370.38;4880391;29;7311;-62
2022/08/24 11:47:24;;;;;;;;;;;;;;;28.70;34.53;94371.13;4934708;28;8544;-62
2022/08/24 11:49:58;;;;;;;;;;;;;;;28.69;34.20;94373.16;4948304;28;7306;-62
2022/08/24 11:53:20;;;;;;;;;;;;;;;28.70;33.80;94374.66;4932871;29;7217;-62
2022/08/24 11:56:32;;;;;;;;;;;;;;;28.71;34.24;94376.13;4896413;29;7044;-63
2022/08/24 11:59:23;;;;;;;;;;;;;;;28.69;34.44;94364.84;4908262;29;7478;-63
2022/08/24 12:02:46;;;;;;;;;;;;;;;28.72;33.36;94376.88;4893103;29;7500;-62
2022/08/24 12:05:43;;;;;;;;;;;;;;;28.76;33.23;94363.47;4836282;29;7186;-61
2022/08/24 12:08:38;;;;;;;;;;;;;;;28.75;32.88;94371.00;4838843;29;9164;-60
2022/08/24 12:12:12;;;;;;;;;;;;;;;28.76;33.27;94361.44;4787224;29;7314;-60
2022/08/24 12:15:05;;;;;;;;;;;;;;;28.81;32.80;94373.69;4765747;30;7976;-61
2022/08/24 12:17:59;;;;;;;;;;;;;;;28.82;32.83;94364.09;4753846;30;7664;-60
2022/08/24 12:20:53;;;;;;;;;;;;;;;28.82;32.60;94367.59;4784374;30;7302;-60
2022/08/24 12:23:42;;;;;;;;;;;;;;;28.86;32.35;94359.72;4776258;29;7773;-60
2022/08/24 12:27:02;;;;;;;;;;;;;;;28.88;32.75;94343.31;4786239;29;6868;-60
2022/08/24 12:29:44;;;;;;;;;;;;;;;28.89;32.64;94360.69;4717535;30;7722;-60
2022/08/24 12:32:53;;;;;;;;;;;;;;;28.89;32.35;94358.66;4710488;30;7520;-61
2022/08/24 12:36:03;;;;;;;;;;;;;;;28.90;32.15;94340.78;4722997;30;7269;-60
2022/08/24 12:39:17;;;;;;;;;;;;;;;28.91;32.64;94350.56;4761881;30;7271;-60
2022/08/24 12:42:09;;;;;;;;;;;;;;;28.95;32.30;94344.69;4753373;30;7110;-60
2022/08/24 12:44:51;;;;;;;;;;;;;;;28.97;31.89;94351.19;4764191;29;7314;-59
2022/08/24 12:47:25;;;;;;;;;;;;;;;29.01;31.51;94348.13;4824250;29;8730;-60
2022/08/24 12:50:20;;;;;;;;;;;;;;;29.02;31.62;94344.06;4873029;29;7108;-60
2022/08/24 12:53:19;;;;;;;;;;;;;;;29.03;32.22;94337.25;4858693;29;7036;-61
2022/08/24 12:55:52;;;;;;;;;;;;;;;29.05;31.98;94337.47;4870894;29;7185;-60
2022/08/24 12:58:34;;;;;;;;;;;;;;;29.05;31.21;94343.00;4861875;29;8952;-60
2022/08/24 13:01:07;;;;;;;;;;;;;;;29.08;31.10;94344.69;4875344;29;7156;-60
2022/08/24 13:03:42;;;;;;;;;;;;;;;29.12;31.60;94336.81;4922650;28;9473;-60
2022/08/24 13:06:27;;;;;;;;;;;;;;;29.16;31.61;94336.47;4968366;28;7051;-60
2022/08/24 13:09:35;;;;;;;;;;;;;;;29.17;31.26;94343.53;4964840;28;7242;-60
2022/08/24 13:12:45;;;;;;;;;;;;;;;29.17;31.13;94338.72;4895676;29;7338;-60
2022/08/24 13:15:49;;;;;;;;;;;;;;;29.17;31.83;94338.72;4906416;29;9304;-60
2022/08/24 13:19:01;;;;;;;;;;;;;;;29.17;30.97;94343.53;4908123;29;7428;-60
2022/08/24 13:21:46;;;;;;;;;;;;;;;29.18;31.90;94329.16;4893987;29;7330;-60
2022/08/24 13:24:41;;;;;;;;;;;;;;;29.20;31.77;94334.16;4892191;29;9688;-60
2022/08/24 13:27:20;;;;;;;;;;;;;;;29.23;31.00;94333.09;4908194;29;7228;-60
2022/08/24 13:30:19;;;;;;;;;;;;;;;29.24;31.47;94335.31;4911376;29;8514;-60
2022/08/24 13:33:16;;;;;;;;;;;;;;;29.24;31.13;94329.03;4914214;29;7591;-61
2022/08/24 13:36:21;;;;;;;;;;;;;;;29.26;30.61;94329.97;4898476;29;7224;-60
2022/08/24 13:39:09;;;;;;;;;;;;;;;29.27;30.80;94328.72;4913247;29;9407;-60
2022/08/24 13:42:12;;;;;;;;;;;;;;;29.27;30.94;94327.97;4915586;29;7185;-60
2022/08/24 13:45:01;;;;;;;;;;;;;;;29.28;30.84;94329.44;4874001;29;7240;-60
2022/08/24 13:47:55;;;;;;;;;;;;;;;29.29;31.14;94328.16;4935728;28;9073;-60
2022/08/24 13:50:48;;;;;;;;;;;;;;;29.29;30.51;94328.16;4924072;28;9131;-60
2022/08/24 13:53:50;;;;;;;;;;;;;;;29.35;30.94;94326.75;4937414;28;7566;-60
2022/08/24 13:56:49;;;;;;;;;;;;;;;29.37;30.19;94326.22;4925897;29;7263;-60
2022/08/24 13:59:59;;;;;;;;;;;;;;;29.36;31.12;94333.06;4945307;28;7548;-60
2022/08/24 14:03:17;;;;;;;;;;;;;;;29.36;30.53;94327.50;4936408;28;9479;-61
2022/08/24 14:06:15;;;;;;;;;;;;;;;29.38;30.34;94334.00;4875365;29;7188;-60
2022/08/24 14:09:01;;;;;;;;;;;;;;;29.42;31.07;94339.97;4877284;29;6987;-60
2022/08/24 14:11:46;;;;;;;;;;;;;;;29.42;30.45;94330.91;4878540;29;9702;-60
2022/08/24 14:14:25;;;;;;;;;;;;;;;29.44;30.46;94336.66;4862881;29;7225;-60
2022/08/24 14:17:52;;;;;;;;;;;;;;;29.45;30.67;94324.28;4877000;29;7264;-60
2022/08/24 14:20:37;;;;;;;;;;;;;;;29.49;29.62;94341.31;4834511;29;7684;-60
2022/08/24 14:23:25;;;;;;;;;;;;;;;29.53;30.05;94325.84;4859135;29;9020;-61
2022/08/24 14:26:31;;;;;;;;;;;;;;;29.56;29.92;94324.00;4857601;29;7272;-60